sensor_id;sensor_type;location;lat;lon;timestamp;pressure;altitude;pressure_sealevel;temperature
24740;BMP280;45234;48.148;17.128;2022-08-07T00:01:24;100466.09;;;18.75
24740;BMP280;45234;48.148;17.128;2022-08-07T00:04:11;100471.84;;;18.72
24740;BMP280;45234;48.148;17.128;2022-08-07T00:06:41;100471.03;;;18.71
24740;BMP280;45234;48.148;17.128;2022-08-07T00:09:21;100468.47;;;18.76
24740;BMP280;45234;48.148;17.128;2022-08-07T00:12:01;100467.28;;;18.67
24740;BMP280;45234;48.148;17.128;2022-08-07T00:14:28;100475.34;;;18.77
24740;BMP280;45234;48.148;17.128;2022-08-07T00:16:58;100470.53;;;18.74
24740;BMP280;45234;48.148;17.128;2022-08-07T00:19:25;100466.28;;;18.68
24740;BMP280;45234;48.148;17.128;2022-08-07T00:22:15;100469.75;;;18.74
24740;BMP280;45234;48.148;17.128;2022-08-07T00:25:02;100474.78;;;18.75
24740;BMP280;45234;48.148;17.128;2022-08-07T00:27:30;100474.69;;;18.70
24740;BMP280;45234;48.148;17.128;2022-08-07T00:30:17;100462.25;;;18.66
24740;BMP280;45234;48.148;17.128;2022-08-07T00:32:55;100469.84;;;18.62
24740;BMP280;45234;48.148;17.128;2022-08-07T00:35:24;100474.59;;;18.65
24740;BMP280;45234;48.148;17.128;2022-08-07T00:37:57;100469.91;;;18.67
24740;BMP280;45234;48.148;17.128;2022-08-07T00:40:24;100467.22;;;18.62
24740;BMP280;45234;48.148;17.128;2022-08-07T00:43:07;100471.34;;;18.58
24740;BMP280;45234;48.148;17.128;2022-08-07T00:45:39;100467.84;;;18.53
24740;BMP280;45234;48.148;17.128;2022-08-07T00:48:06;100471.66;;;18.62
24740;BMP280;45234;48.148;17.128;2022-08-07T00:50:39;100469.19;;;18.55
24740;BMP280;45234;48.148;17.128;2022-08-07T00:53:17;100473.09;;;18.53
24740;BMP280;45234;48.148;17.128;2022-08-07T00:55:46;100472.28;;;18.52
24740;BMP280;45234;48.148;17.128;2022-08-07T00:58:29;100465.94;;;18.48
24740;BMP280;45234;48.148;17.128;2022-08-07T01:00:57;100454.16;;;18.51
24740;BMP280;45234;48.148;17.128;2022-08-07T01:03:24;100451.53;;;18.51
24740;BMP280;45234;48.148;17.128;2022-08-07T01:06:12;100452.97;;;18.58
24740;BMP280;45234;48.148;17.128;2022-08-07T01:08:41;100454.63;;;18.47
24740;BMP280;45234;48.148;17.128;2022-08-07T01:11:19;100451.78;;;18.49
24740;BMP280;45234;48.148;17.128;2022-08-07T01:14:07;100459.09;;;18.47
24740;BMP280;45234;48.148;17.128;2022-08-07T01:16:35;100451.22;;;18.47
24740;BMP280;45234;48.148;17.128;2022-08-07T01:19:05;100454.06;;;18.62
24740;BMP280;45234;48.148;17.128;2022-08-07T01:21:45;100440.88;;;18.57
24740;BMP280;45234;48.148;17.128;2022-08-07T01:24:12;100453.50;;;18.60
24740;BMP280;45234;48.148;17.128;2022-08-07T01:26:47;100454.31;;;18.61
24740;BMP280;45234;48.148;17.128;2022-08-07T01:29:21;100455.59;;;18.58
24740;BMP280;45234;48.148;17.128;2022-08-07T01:31:54;100457.38;;;18.69
24740;BMP280;45234;48.148;17.128;2022-08-07T01:34:25;100456.06;;;18.72
24740;BMP280;45234;48.148;17.128;2022-08-07T01:36:58;100458.84;;;18.65
24740;BMP280;45234;48.148;17.128;2022-08-07T01:39:27;100453.94;;;18.69
24740;BMP280;45234;48.148;17.128;2022-08-07T01:42:26;100448.75;;;18.74
24740;BMP280;45234;48.148;17.128;2022-08-07T01:45:07;100437.13;;;18.86
24740;BMP280;45234;48.148;17.128;2022-08-07T01:47:46;100444.72;;;18.83
24740;BMP280;45234;48.148;17.128;2022-08-07T01:50:37;100449.91;;;18.78
24740;BMP280;45234;48.148;17.128;2022-08-07T01:53:09;100454.66;;;18.81
24740;BMP280;45234;48.148;17.128;2022-08-07T01:56:00;100446.13;;;18.91
24740;BMP280;45234;48.148;17.128;2022-08-07T01:58:30;100440.44;;;18.99
24740;BMP280;45234;48.148;17.128;2022-08-07T02:01:02;100446.66;;;18.93
24740;BMP280;45234;48.148;17.128;2022-08-07T02:03:51;100446.19;;;18.96
24740;BMP280;45234;48.148;17.128;2022-08-07T02:06:19;100445.56;;;19.05
24740;BMP280;45234;48.148;17.128;2022-08-07T02:09:02;100440.13;;;19.12
24740;BMP280;45234;48.148;17.128;2022-08-07T02:11:32;100450.09;;;19.10
24740;BMP280;45234;48.148;17.128;2022-08-07T02:14:21;100453.69;;;19.04
24740;BMP280;45234;48.148;17.128;2022-08-07T02:17:12;100444.75;;;19.05
24740;BMP280;45234;48.148;17.128;2022-08-07T02:19:55;100447.13;;;19.06
24740;BMP280;45234;48.148;17.128;2022-08-07T02:22:31;100450.00;;;19.05
24740;BMP280;45234;48.148;17.128;2022-08-07T02:24:58;100453.44;;;19.05
24740;BMP280;45234;48.148;17.128;2022-08-07T02:27:32;100456.53;;;19.02
24740;BMP280;45234;48.148;17.128;2022-08-07T02:30:01;100447.00;;;18.96
24740;BMP280;45234;48.148;17.128;2022-08-07T02:32:34;100438.66;;;18.99
24740;BMP280;45234;48.148;17.128;2022-08-07T02:35:25;100440.16;;;18.95
24740;BMP280;45234;48.148;17.128;2022-08-07T02:38:13;100450.16;;;18.98
24740;BMP280;45234;48.148;17.128;2022-08-07T02:40:42;100446.19;;;18.96
24740;BMP280;45234;48.148;17.128;2022-08-07T02:43:13;100444.53;;;18.90
24740;BMP280;45234;48.148;17.128;2022-08-07T02:45:40;100465.00;;;18.87
24740;BMP280;45234;48.148;17.128;2022-08-07T02:48:26;100454.94;;;18.84
24740;BMP280;45234;48.148;17.128;2022-08-07T02:50:56;100445.09;;;18.92
24740;BMP280;45234;48.148;17.128;2022-08-07T02:53:30;100450.25;;;18.86
24740;BMP280;45234;48.148;17.128;2022-08-07T02:56:07;100440.31;;;18.88
24740;BMP280;45234;48.148;17.128;2022-08-07T02:58:48;100438.72;;;18.87
24740;BMP280;45234;48.148;17.128;2022-08-07T03:01:17;100434.66;;;18.97
24740;BMP280;45234;48.148;17.128;2022-08-07T03:04:04;100436.59;;;19.01
24740;BMP280;45234;48.148;17.128;2022-08-07T03:06:39;100443.03;;;19.10
24740;BMP280;45234;48.148;17.128;2022-08-07T03:09:11;100441.78;;;19.18
24740;BMP280;45234;48.148;17.128;2022-08-07T03:12:03;100446.63;;;19.26
24740;BMP280;45234;48.148;17.128;2022-08-07T03:14:35;100448.75;;;19.29
24740;BMP280;45234;48.148;17.128;2022-08-07T03:17:03;100446.91;;;19.30
24740;BMP280;45234;48.148;17.128;2022-08-07T03:19:35;100430.63;;;19.27
24740;BMP280;45234;48.148;17.128;2022-08-07T03:22:07;100428.78;;;19.28
24740;BMP280;45234;48.148;17.128;2022-08-07T03:24:45;100428.22;;;19.26
24740;BMP280;45234;48.148;17.128;2022-08-07T03:27:13;100424.41;;;19.17
24740;BMP280;45234;48.148;17.128;2022-08-07T03:29:57;100418.06;;;19.13
24740;BMP280;45234;48.148;17.128;2022-08-07T03:32:26;100409.69;;;19.16
24740;BMP280;45234;48.148;17.128;2022-08-07T03:34:56;100412.81;;;19.13
24740;BMP280;45234;48.148;17.128;2022-08-07T03:37:45;100413.75;;;19.07
24740;BMP280;45234;48.148;17.128;2022-08-07T03:40:22;100415.28;;;19.03
24740;BMP280;45234;48.148;17.128;2022-08-07T03:43:06;100415.16;;;18.93
24740;BMP280;45234;48.148;17.128;2022-08-07T03:45:40;100417.84;;;18.98
24740;BMP280;45234;48.148;17.128;2022-08-07T03:48:14;100417.41;;;19.01
24740;BMP280;45234;48.148;17.128;2022-08-07T03:50:41;100413.53;;;19.08
24740;BMP280;45234;48.148;17.128;2022-08-07T03:53:24;100402.88;;;18.98
24740;BMP280;45234;48.148;17.128;2022-08-07T03:56:13;100411.63;;;19.04
24740;BMP280;45234;48.148;17.128;2022-08-07T03:58:41;100410.53;;;19.00
24740;BMP280;45234;48.148;17.128;2022-08-07T04:01:29;100416.34;;;19.02
24740;BMP280;45234;48.148;17.128;2022-08-07T04:03:58;100428.03;;;19.11
24740;BMP280;45234;48.148;17.128;2022-08-07T04:06:30;100418.88;;;19.13
24740;BMP280;45234;48.148;17.128;2022-08-07T04:09:11;100428.59;;;19.13
24740;BMP280;45234;48.148;17.128;2022-08-07T04:11:44;100423.72;;;19.21
24740;BMP280;45234;48.148;17.128;2022-08-07T04:14:33;100429.69;;;19.17
24740;BMP280;45234;48.148;17.128;2022-08-07T04:17:11;100428.88;;;19.16
24740;BMP280;45234;48.148;17.128;2022-08-07T04:19:48;100436.63;;;19.23
24740;BMP280;45234;48.148;17.128;2022-08-07T04:22:21;100444.63;;;19.33
24740;BMP280;45234;48.148;17.128;2022-08-07T04:24:56;100435.22;;;19.37
24740;BMP280;45234;48.148;17.128;2022-08-07T04:27:28;100433.06;;;19.34
24740;BMP280;45234;48.148;17.128;2022-08-07T04:30:11;100441.81;;;19.40
24740;BMP280;45234;48.148;17.128;2022-08-07T04:33:05;100431.00;;;19.36
24740;BMP280;45234;48.148;17.128;2022-08-07T04:35:37;100428.59;;;19.35
24740;BMP280;45234;48.148;17.128;2022-08-07T04:38:27;100439.53;;;19.48
24740;BMP280;45234;48.148;17.128;2022-08-07T04:40:56;100435.28;;;19.42
24740;BMP280;45234;48.148;17.128;2022-08-07T04:43:35;100437.16;;;19.47
24740;BMP280;45234;48.148;17.128;2022-08-07T04:49:12;100454.47;;;19.64
24740;BMP280;45234;48.148;17.128;2022-08-07T05:05:19;100452.56;;;19.60
24740;BMP280;45234;48.148;17.128;2022-08-07T05:10:50;100450.94;;;19.76
24740;BMP280;45234;48.148;17.128;2022-08-07T05:13:30;100445.25;;;19.84
24740;BMP280;45234;48.148;17.128;2022-08-07T05:16:22;100451.16;;;19.74
24740;BMP280;45234;48.148;17.128;2022-08-07T05:18:52;100451.66;;;19.71
24740;BMP280;45234;48.148;17.128;2022-08-07T05:21:21;100459.06;;;19.74
24740;BMP280;45234;48.148;17.128;2022-08-07T05:24:11;100457.81;;;19.82
24740;BMP280;45234;48.148;17.128;2022-08-07T05:27:33;100469.50;;;19.91
24740;BMP280;45234;48.148;17.128;2022-08-07T05:30:21;100464.84;;;19.98
24740;BMP280;45234;48.148;17.128;2022-08-07T05:33:01;100474.97;;;20.11
24740;BMP280;45234;48.148;17.128;2022-08-07T05:35:30;100467.44;;;20.20
24740;BMP280;45234;48.148;17.128;2022-08-07T05:38:09;100464.09;;;20.29
24740;BMP280;45234;48.148;17.128;2022-08-07T05:40:38;100467.31;;;20.36
24740;BMP280;45234;48.148;17.128;2022-08-07T05:43:17;100475.44;;;20.35
24740;BMP280;45234;48.148;17.128;2022-08-07T05:46:05;100461.22;;;20.31
24740;BMP280;45234;48.148;17.128;2022-08-07T05:48:32;100476.22;;;20.30
24740;BMP280;45234;48.148;17.128;2022-08-07T05:51:00;100474.59;;;20.24
24740;BMP280;45234;48.148;17.128;2022-08-07T05:53:31;100469.34;;;20.29
24740;BMP280;45234;48.148;17.128;2022-08-07T05:56:18;100474.41;;;20.36
24740;BMP280;45234;48.148;17.128;2022-08-07T05:58:57;100473.16;;;20.43
24740;BMP280;45234;48.148;17.128;2022-08-07T06:01:26;100472.53;;;20.31
24740;BMP280;45234;48.148;17.128;2022-08-07T06:04:04;100479.69;;;20.36
24740;BMP280;45234;48.148;17.128;2022-08-07T06:06:36;100483.94;;;20.42
24740;BMP280;45234;48.148;17.128;2022-08-07T06:09:13;100480.09;;;20.50
24740;BMP280;45234;48.148;17.128;2022-08-07T06:11:43;100478.50;;;20.49
24740;BMP280;45234;48.148;17.128;2022-08-07T06:14:14;100475.44;;;20.62
24740;BMP280;45234;48.148;17.128;2022-08-07T06:16:52;100474.50;;;20.78
24740;BMP280;45234;48.148;17.128;2022-08-07T06:19:30;100474.47;;;20.73
24740;BMP280;45234;48.148;17.128;2022-08-07T06:22:17;100478.16;;;20.77
24740;BMP280;45234;48.148;17.128;2022-08-07T06:24:57;100475.97;;;21.01
24740;BMP280;45234;48.148;17.128;2022-08-07T06:27:29;100485.84;;;20.83
24740;BMP280;45234;48.148;17.128;2022-08-07T06:30:16;100484.66;;;21.01
24740;BMP280;45234;48.148;17.128;2022-08-07T06:33:04;100478.22;;;21.24
24740;BMP280;45234;48.148;17.128;2022-08-07T06:35:44;100485.16;;;21.45
24740;BMP280;45234;48.148;17.128;2022-08-07T06:38:31;100485.47;;;21.59
24740;BMP280;45234;48.148;17.128;2022-08-07T06:41:01;100487.88;;;21.71
24740;BMP280;45234;48.148;17.128;2022-08-07T06:43:33;100487.13;;;21.75
24740;BMP280;45234;48.148;17.128;2022-08-07T06:46:12;100495.06;;;21.80
24740;BMP280;45234;48.148;17.128;2022-08-07T06:48:56;100493.22;;;21.91
24740;BMP280;45234;48.148;17.128;2022-08-07T06:51:27;100493.25;;;21.96
24740;BMP280;45234;48.148;17.128;2022-08-07T06:54:03;100497.16;;;21.93
24740;BMP280;45234;48.148;17.128;2022-08-07T06:56:53;100493.22;;;22.01
24740;BMP280;45234;48.148;17.128;2022-08-07T06:59:29;100497.75;;;22.11
24740;BMP280;45234;48.148;17.128;2022-08-07T07:02:19;100500.91;;;22.13
24740;BMP280;45234;48.148;17.128;2022-08-07T07:05:06;100499.88;;;22.19
24740;BMP280;45234;48.148;17.128;2022-08-07T07:07:38;100490.88;;;22.35
24740;BMP280;45234;48.148;17.128;2022-08-07T07:10:30;100507.25;;;22.37
24740;BMP280;45234;48.148;17.128;2022-08-07T07:13:18;100503.84;;;22.52
24740;BMP280;45234;48.148;17.128;2022-08-07T07:16:07;100501.72;;;22.69
24740;BMP280;45234;48.148;17.128;2022-08-07T07:18:38;100498.72;;;23.01
24740;BMP280;45234;48.148;17.128;2022-08-07T07:21:15;100492.59;;;23.75
24740;BMP280;45234;48.148;17.128;2022-08-07T07:23:46;100500.47;;;24.52
24740;BMP280;45234;48.148;17.128;2022-08-07T07:26:33;100500.06;;;25.92
24740;BMP280;45234;48.148;17.128;2022-08-07T07:29:13;100496.44;;;26.34
24740;BMP280;45234;48.148;17.128;2022-08-07T07:32:04;100491.75;;;26.25
24740;BMP280;45234;48.148;17.128;2022-08-07T07:34:37;100489.56;;;26.00
24740;BMP280;45234;48.148;17.128;2022-08-07T07:37:07;100486.75;;;26.24
24740;BMP280;45234;48.148;17.128;2022-08-07T07:39:57;100487.78;;;25.39
24740;BMP280;45234;48.148;17.128;2022-08-07T07:42:51;100485.06;;;24.83
24740;BMP280;45234;48.148;17.128;2022-08-07T07:45:23;100478.19;;;24.82
24740;BMP280;45234;48.148;17.128;2022-08-07T07:48:16;100494.88;;;24.83
24740;BMP280;45234;48.148;17.128;2022-08-07T07:51:02;100498.22;;;24.36
24740;BMP280;45234;48.148;17.128;2022-08-07T07:53:44;100501.34;;;24.43
24740;BMP280;45234;48.148;17.128;2022-08-07T07:56:21;100507.78;;;24.66
24740;BMP280;45234;48.148;17.128;2022-08-07T07:58:57;100496.38;;;24.36
24740;BMP280;45234;48.148;17.128;2022-08-07T08:01:28;100501.56;;;24.51
24740;BMP280;45234;48.148;17.128;2022-08-07T08:04:16;100497.91;;;24.71
24740;BMP280;45234;48.148;17.128;2022-08-07T08:06:45;100499.19;;;24.74
24740;BMP280;45234;48.148;17.128;2022-08-07T08:09:18;100497.56;;;24.78
24740;BMP280;45234;48.148;17.128;2022-08-07T08:11:49;100509.66;;;24.89
24740;BMP280;45234;48.148;17.128;2022-08-07T08:14:32;100502.28;;;24.57
24740;BMP280;45234;48.148;17.128;2022-08-07T08:17:06;100510.94;;;24.39
24740;BMP280;45234;48.148;17.128;2022-08-07T08:19:55;100499.44;;;24.48
24740;BMP280;45234;48.148;17.128;2022-08-07T08:22:45;100507.22;;;24.69
24740;BMP280;45234;48.148;17.128;2022-08-07T08:25:34;100497.97;;;24.37
24740;BMP280;45234;48.148;17.128;2022-08-07T08:28:23;100502.38;;;24.47
24740;BMP280;45234;48.148;17.128;2022-08-07T08:31:05;100505.91;;;24.66
24740;BMP280;45234;48.148;17.128;2022-08-07T08:33:42;100500.09;;;24.88
24740;BMP280;45234;48.148;17.128;2022-08-07T08:36:15;100496.97;;;24.62
24740;BMP280;45234;48.148;17.128;2022-08-07T08:38:51;100497.81;;;24.52
24740;BMP280;45234;48.148;17.128;2022-08-07T08:47:16;100500.66;;;24.32
24740;BMP280;45234;48.148;17.128;2022-08-07T08:55:28;100505.47;;;24.25
24740;BMP280;45234;48.148;17.128;2022-08-07T08:58:18;100502.50;;;24.32
24740;BMP280;45234;48.148;17.128;2022-08-07T09:00:59;100509.81;;;24.45
24740;BMP280;45234;48.148;17.128;2022-08-07T09:06:38;100510.00;;;25.06
24740;BMP280;45234;48.148;17.128;2022-08-07T09:26:49;100482.44;;;26.42
24740;BMP280;45234;48.148;17.128;2022-08-07T09:29:25;100490.81;;;26.49
24740;BMP280;45234;48.148;17.128;2022-08-07T09:32:30;100479.72;;;25.82
24740;BMP280;45234;48.148;17.128;2022-08-07T09:38:28;100478.03;;;25.35
24740;BMP280;45234;48.148;17.128;2022-08-07T09:49:47;100454.00;;;24.84
24740;BMP280;45234;48.148;17.128;2022-08-07T09:55:19;100463.94;;;24.73
24740;BMP280;45234;48.148;17.128;2022-08-07T10:03:30;100451.50;;;25.16
24740;BMP280;45234;48.148;17.128;2022-08-07T10:17:25;100449.19;;;25.66
24740;BMP280;45234;48.148;17.128;2022-08-07T10:20:21;100445.22;;;25.63
24740;BMP280;45234;48.148;17.128;2022-08-07T10:28:38;100441.03;;;25.95
24740;BMP280;45234;48.148;17.128;2022-08-07T10:45:16;100430.56;;;25.84
24740;BMP280;45234;48.148;17.128;2022-08-07T10:50:48;100429.03;;;25.97
24740;BMP280;45234;48.148;17.128;2022-08-07T11:07:05;100432.78;;;26.78
24740;BMP280;45234;48.148;17.128;2022-08-07T11:09:53;100427.91;;;26.44
24740;BMP280;45234;48.148;17.128;2022-08-07T11:12:45;100428.38;;;26.60
24740;BMP280;45234;48.148;17.128;2022-08-07T11:15:27;100417.88;;;26.41
24740;BMP280;45234;48.148;17.128;2022-08-07T11:23:09;100424.91;;;26.05
24740;BMP280;45234;48.148;17.128;2022-08-07T11:25:53;100412.69;;;25.90
24740;BMP280;45234;48.148;17.128;2022-08-07T11:28:39;100404.72;;;25.58
24740;BMP280;45234;48.148;17.128;2022-08-07T11:36:46;100401.28;;;25.57
24740;BMP280;45234;48.148;17.128;2022-08-07T11:42:04;100394.91;;;25.58
24740;BMP280;45234;48.148;17.128;2022-08-07T11:44:55;100400.38;;;25.62
24740;BMP280;45234;48.148;17.128;2022-08-07T11:50:34;100392.91;;;25.96
24740;BMP280;45234;48.148;17.128;2022-08-07T11:59:14;100390.56;;;25.95
24740;BMP280;45234;48.148;17.128;2022-08-07T12:08:13;100382.31;;;26.23
24740;BMP280;45234;48.148;17.128;2022-08-07T12:10:33;100383.09;;;26.10
24740;BMP280;45234;48.148;17.128;2022-08-07T12:13:21;100386.94;;;26.04
24740;BMP280;45234;48.148;17.128;2022-08-07T12:16:09;100385.75;;;26.10
24740;BMP280;45234;48.148;17.128;2022-08-07T12:18:48;100379.28;;;26.30
24740;BMP280;45234;48.148;17.128;2022-08-07T12:27:11;100375.50;;;26.45
24740;BMP280;45234;48.148;17.128;2022-08-07T12:29:47;100380.06;;;26.31
24740;BMP280;45234;48.148;17.128;2022-08-07T12:35:07;100376.47;;;26.76
24740;BMP280;45234;48.148;17.128;2022-08-07T12:37:39;100376.88;;;26.56
24740;BMP280;45234;48.148;17.128;2022-08-07T12:40:27;100379.72;;;26.73
24740;BMP280;45234;48.148;17.128;2022-08-07T12:43:21;100372.09;;;26.31
24740;BMP280;45234;48.148;17.128;2022-08-07T12:51:23;100366.03;;;26.66
24740;BMP280;45234;48.148;17.128;2022-08-07T12:54:16;100344.78;;;26.88
24740;BMP280;45234;48.148;17.128;2022-08-07T12:57:04;100347.91;;;27.26
24740;BMP280;45234;48.148;17.128;2022-08-07T12:59:36;100349.78;;;27.26
24740;BMP280;45234;48.148;17.128;2022-08-07T13:05:18;100343.50;;;27.83
24740;BMP280;45234;48.148;17.128;2022-08-07T13:10:52;100338.41;;;27.34
24740;BMP280;45234;48.148;17.128;2022-08-07T13:13:41;100333.38;;;27.32
24740;BMP280;45234;48.148;17.128;2022-08-07T13:22:09;100333.69;;;27.08
24740;BMP280;45234;48.148;17.128;2022-08-07T13:24:55;100331.88;;;26.95
24740;BMP280;45234;48.148;17.128;2022-08-07T13:27:43;100326.75;;;26.99
24740;BMP280;45234;48.148;17.128;2022-08-07T13:30:32;100324.75;;;27.04
24740;BMP280;45234;48.148;17.128;2022-08-07T13:35:58;100330.22;;;26.63
24740;BMP280;45234;48.148;17.128;2022-08-07T13:38:41;100322.53;;;26.62
24740;BMP280;45234;48.148;17.128;2022-08-07T13:43:40;100314.91;;;26.69
24740;BMP280;45234;48.148;17.128;2022-08-07T13:46:08;100311.06;;;26.75
24740;BMP280;45234;48.148;17.128;2022-08-07T13:48:54;100307.75;;;26.56
24740;BMP280;45234;48.148;17.128;2022-08-07T13:51:26;100308.97;;;26.36
24740;BMP280;45234;48.148;17.128;2022-08-07T13:54:15;100312.03;;;26.43
24740;BMP280;45234;48.148;17.128;2022-08-07T13:56:51;100298.34;;;26.22
24740;BMP280;45234;48.148;17.128;2022-08-07T13:59:26;100303.66;;;26.22
24740;BMP280;45234;48.148;17.128;2022-08-07T14:02:00;100303.47;;;26.19
24740;BMP280;45234;48.148;17.128;2022-08-07T14:04:47;100303.88;;;26.12
24740;BMP280;45234;48.148;17.128;2022-08-07T14:07:25;100299.53;;;26.16
24740;BMP280;45234;48.148;17.128;2022-08-07T14:09:54;100293.13;;;26.17
24740;BMP280;45234;48.148;17.128;2022-08-07T14:15:09;100299.53;;;26.30
24740;BMP280;45234;48.148;17.128;2022-08-07T14:17:47;100293.53;;;26.24
24740;BMP280;45234;48.148;17.128;2022-08-07T14:20:37;100280.44;;;26.14
24740;BMP280;45234;48.148;17.128;2022-08-07T14:23:21;100278.84;;;26.27
24740;BMP280;45234;48.148;17.128;2022-08-07T14:26:14;100278.06;;;26.26
24740;BMP280;45234;48.148;17.128;2022-08-07T14:29:01;100277.06;;;26.36
24740;BMP280;45234;48.148;17.128;2022-08-07T14:31:56;100268.44;;;26.31
24740;BMP280;45234;48.148;17.128;2022-08-07T14:34:29;100267.47;;;26.49
24740;BMP280;45234;48.148;17.128;2022-08-07T14:37:13;100263.69;;;26.27
24740;BMP280;45234;48.148;17.128;2022-08-07T14:39:43;100269.91;;;26.23
24740;BMP280;45234;48.148;17.128;2022-08-07T14:42:31;100269.63;;;26.24
24740;BMP280;45234;48.148;17.128;2022-08-07T14:45:22;100269.72;;;26.19
24740;BMP280;45234;48.148;17.128;2022-08-07T14:48:12;100263.41;;;26.29
24740;BMP280;45234;48.148;17.128;2022-08-07T14:50:46;100256.63;;;26.23
24740;BMP280;45234;48.148;17.128;2022-08-07T14:53:17;100256.22;;;26.30
24740;BMP280;45234;48.148;17.128;2022-08-07T14:56:06;100251.75;;;26.39
24740;BMP280;45234;48.148;17.128;2022-08-07T14:58:42;100259.88;;;26.56
24740;BMP280;45234;48.148;17.128;2022-08-07T15:01:10;100246.34;;;26.44
24740;BMP280;45234;48.148;17.128;2022-08-07T15:03:59;100243.38;;;26.45
24740;BMP280;45234;48.148;17.128;2022-08-07T15:06:33;100257.22;;;26.56
24740;BMP280;45234;48.148;17.128;2022-08-07T15:09:10;100261.09;;;26.50
24740;BMP280;45234;48.148;17.128;2022-08-07T15:12:00;100250.69;;;26.40
24740;BMP280;45234;48.148;17.128;2022-08-07T15:14:56;100249.69;;;26.36
24740;BMP280;45234;48.148;17.128;2022-08-07T15:17:33;100234.59;;;26.45
24740;BMP280;45234;48.148;17.128;2022-08-07T15:20:23;100232.56;;;26.42
24740;BMP280;45234;48.148;17.128;2022-08-07T15:23:21;100229.81;;;26.33
24740;BMP280;45234;48.148;17.128;2022-08-07T15:26:11;100234.06;;;26.34
24740;BMP280;45234;48.148;17.128;2022-08-07T15:28:59;100234.25;;;26.38
24740;BMP280;45234;48.148;17.128;2022-08-07T15:31:48;100229.03;;;26.33
24740;BMP280;45234;48.148;17.128;2022-08-07T15:34:32;100224.34;;;26.52
24740;BMP280;45234;48.148;17.128;2022-08-07T15:37:02;100225.91;;;26.31
24740;BMP280;45234;48.148;17.128;2022-08-07T15:39:37;100232.66;;;26.37
24740;BMP280;45234;48.148;17.128;2022-08-07T15:42:44;100231.59;;;26.38
24740;BMP280;45234;48.148;17.128;2022-08-07T15:45:35;100223.94;;;26.22
24740;BMP280;45234;48.148;17.128;2022-08-07T15:48:25;100225.69;;;26.27
24740;BMP280;45234;48.148;17.128;2022-08-07T15:50:57;100228.56;;;26.31
24740;BMP280;45234;48.148;17.128;2022-08-07T15:53:42;100232.63;;;26.14
24740;BMP280;45234;48.148;17.128;2022-08-07T15:56:20;100236.97;;;26.10
24740;BMP280;45234;48.148;17.128;2022-08-07T15:58:54;100225.25;;;26.11
24740;BMP280;45234;48.148;17.128;2022-08-07T16:04:09;100224.72;;;26.23
24740;BMP280;45234;48.148;17.128;2022-08-07T16:09:12;100225.69;;;26.27
24740;BMP280;45234;48.148;17.128;2022-08-07T16:14:35;100220.81;;;26.07
24740;BMP280;45234;48.148;17.128;2022-08-07T16:17:31;100233.31;;;26.06
24740;BMP280;45234;48.148;17.128;2022-08-07T16:26:11;100233.13;;;25.89
24740;BMP280;45234;48.148;17.128;2022-08-07T16:42:59;100228.72;;;25.84
24740;BMP280;45234;48.148;17.128;2022-08-07T17:00:12;100236.63;;;25.30
24740;BMP280;45234;48.148;17.128;2022-08-07T17:03:03;100232.19;;;25.25
24740;BMP280;45234;48.148;17.128;2022-08-07T17:11:25;100224.41;;;25.15
24740;BMP280;45234;48.148;17.128;2022-08-07T17:14:19;100231.34;;;25.11
24740;BMP280;45234;48.148;17.128;2022-08-07T17:17:01;100226.22;;;25.01
24740;BMP280;45234;48.148;17.128;2022-08-07T17:19:40;100234.28;;;24.96
24740;BMP280;45234;48.148;17.128;2022-08-07T17:22:35;100228.53;;;24.89
24740;BMP280;45234;48.148;17.128;2022-08-07T17:28:15;100228.50;;;24.75
24740;BMP280;45234;48.148;17.128;2022-08-07T17:30:41;100233.03;;;24.70
24740;BMP280;45234;48.148;17.128;2022-08-07T17:33:25;100224.69;;;24.63
24740;BMP280;45234;48.148;17.128;2022-08-07T17:41:32;100234.41;;;24.48
24740;BMP280;45234;48.148;17.128;2022-08-07T17:44:27;100243.03;;;24.40
24740;BMP280;45234;48.148;17.128;2022-08-07T17:52:55;100256.03;;;24.18
24740;BMP280;45234;48.148;17.128;2022-08-07T18:01:18;100259.44;;;23.95
24740;BMP280;45234;48.148;17.128;2022-08-07T18:03:59;100266.38;;;23.91
24740;BMP280;45234;48.148;17.128;2022-08-07T18:06:45;100263.75;;;23.86
24740;BMP280;45234;48.148;17.128;2022-08-07T18:09:34;100263.31;;;23.79
24740;BMP280;45234;48.148;17.128;2022-08-07T18:12:28;100259.41;;;23.71
24740;BMP280;45234;48.148;17.128;2022-08-07T18:14:59;100265.56;;;23.66
24740;BMP280;45234;48.148;17.128;2022-08-07T18:21:01;100266.19;;;23.53
24740;BMP280;45234;48.148;17.128;2022-08-07T18:26:37;100267.31;;;23.47
24740;BMP280;45234;48.148;17.128;2022-08-07T18:35:19;100283.78;;;23.39
24740;BMP280;45234;48.148;17.128;2022-08-07T18:43:09;100295.94;;;23.40
24740;BMP280;45234;48.148;17.128;2022-08-07T18:45:56;100303.88;;;23.40
24740;BMP280;45234;48.148;17.128;2022-08-07T18:48:47;100294.59;;;23.43
24740;BMP280;45234;48.148;17.128;2022-08-07T18:57:27;100302.53;;;23.48
24740;BMP280;45234;48.148;17.128;2022-08-07T19:00:06;100308.09;;;23.41
24740;BMP280;45234;48.148;17.128;2022-08-07T19:06:17;100298.91;;;23.34
24740;BMP280;45234;48.148;17.128;2022-08-07T19:08:58;100311.34;;;23.33
24740;BMP280;45234;48.148;17.128;2022-08-07T19:17:03;100317.06;;;23.45
24740;BMP280;45234;48.148;17.128;2022-08-07T19:19:57;100321.31;;;23.41
24740;BMP280;45234;48.148;17.128;2022-08-07T19:25:11;100334.00;;;23.05
24740;BMP280;45234;48.148;17.128;2022-08-07T19:27:58;100321.34;;;22.97
24740;BMP280;45234;48.148;17.128;2022-08-07T19:30:46;100320.28;;;22.98
24740;BMP280;45234;48.148;17.128;2022-08-07T19:33:35;100315.81;;;22.94
24740;BMP280;45234;48.148;17.128;2022-08-07T19:36:10;100323.47;;;22.95
24740;BMP280;45234;48.148;17.128;2022-08-07T19:38:53;100315.31;;;22.86